sensor_id;sensor_type;location;lat;lon;timestamp;P1;durP1;ratioP1;P2;durP2;ratioP2
7273;SDS011;3678;60.002;17.846;2022-12-18T00:02:09;16.93;;;8.27;;
7273;SDS011;3678;60.002;17.846;2022-12-18T00:04:36;15.33;;;7.93;;
7273;SDS011;3678;60.002;17.846;2022-12-18T00:07:03;13.97;;;7.77;;
7273;SDS011;3678;60.002;17.846;2022-12-18T00:09:30;15.77;;;7.83;;
7273;SDS011;3678;60.002;17.846;2022-12-18T00:11:57;14.20;;;7.60;;
7273;SDS011;3678;60.002;17.846;2022-12-18T00:14:26;12.83;;;7.17;;
7273;SDS011;3678;60.002;17.846;2022-12-18T00:16:53;17.33;;;7.63;;
7273;SDS011;3678;60.002;17.846;2022-12-18T00:19:20;15.67;;;8.23;;
7273;SDS011;3678;60.002;17.846;2022-12-18T00:21:47;16.77;;;8.00;;
7273;SDS011;3678;60.002;17.846;2022-12-18T00:24:14;16.97;;;8.30;;
7273;SDS011;3678;60.002;17.846;2022-12-18T00:26:41;17.70;;;8.30;;
7273;SDS011;3678;60.002;17.846;2022-12-18T00:29:10;14.00;;;7.67;;
7273;SDS011;3678;60.002;17.846;2022-12-18T00:31:41;16.40;;;8.40;;
7273;SDS011;3678;60.002;17.846;2022-12-18T00:34:09;14.90;;;7.43;;
7273;SDS011;3678;60.002;17.846;2022-12-18T00:36:36;19.57;;;9.53;;
7273;SDS011;3678;60.002;17.846;2022-12-18T00:39:04;17.47;;;8.57;;
7273;SDS011;3678;60.002;17.846;2022-12-18T00:41:31;16.90;;;8.40;;
7273;SDS011;3678;60.002;17.846;2022-12-18T00:44:16;12.30;;;7.33;;
7273;SDS011;3678;60.002;17.846;2022-12-18T00:46:45;17.80;;;9.00;;
7273;SDS011;3678;60.002;17.846;2022-12-18T00:49:13;16.37;;;7.13;;
7273;SDS011;3678;60.002;17.846;2022-12-18T00:51:40;16.83;;;8.47;;
7273;SDS011;3678;60.002;17.846;2022-12-18T00:54:07;15.10;;;8.60;;
7273;SDS011;3678;60.002;17.846;2022-12-18T00:56:35;15.03;;;9.17;;
7273;SDS011;3678;60.002;17.846;2022-12-18T00:59:03;16.83;;;7.80;;
7273;SDS011;3678;60.002;17.846;2022-12-18T01:01:30;18.25;;;10.15;;
7273;SDS011;3678;60.002;17.846;2022-12-18T01:03:58;15.50;;;8.07;;
7273;SDS011;3678;60.002;17.846;2022-12-18T01:06:26;18.03;;;8.57;;
7273;SDS011;3678;60.002;17.846;2022-12-18T01:08:53;15.80;;;8.73;;
7273;SDS011;3678;60.002;17.846;2022-12-18T01:11:20;13.97;;;7.60;;
7273;SDS011;3678;60.002;17.846;2022-12-18T01:13:47;17.20;;;8.20;;
7273;SDS011;3678;60.002;17.846;2022-12-18T01:16:15;15.83;;;7.53;;
7273;SDS011;3678;60.002;17.846;2022-12-18T01:18:42;15.47;;;7.57;;
7273;SDS011;3678;60.002;17.846;2022-12-18T01:21:12;13.13;;;7.40;;
7273;SDS011;3678;60.002;17.846;2022-12-18T01:23:40;15.83;;;8.73;;
7273;SDS011;3678;60.002;17.846;2022-12-18T01:26:07;13.30;;;6.90;;
7273;SDS011;3678;60.002;17.846;2022-12-18T01:28:35;13.23;;;7.47;;
7273;SDS011;3678;60.002;17.846;2022-12-18T01:31:09;16.13;;;8.20;;
7273;SDS011;3678;60.002;17.846;2022-12-18T01:33:37;13.93;;;7.53;;
7273;SDS011;3678;60.002;17.846;2022-12-18T01:36:04;20.40;;;8.43;;
7273;SDS011;3678;60.002;17.846;2022-12-18T01:38:33;12.80;;;8.03;;
7273;SDS011;3678;60.002;17.846;2022-12-18T01:41:00;14.87;;;8.13;;
7273;SDS011;3678;60.002;17.846;2022-12-18T01:43:44;17.90;;;8.67;;
7273;SDS011;3678;60.002;17.846;2022-12-18T01:46:11;19.43;;;8.70;;
7273;SDS011;3678;60.002;17.846;2022-12-18T01:48:39;15.73;;;7.47;;
7273;SDS011;3678;60.002;17.846;2022-12-18T01:51:07;14.80;;;7.80;;
7273;SDS011;3678;60.002;17.846;2022-12-18T01:53:36;17.07;;;8.37;;
7273;SDS011;3678;60.002;17.846;2022-12-18T01:56:04;15.87;;;7.80;;
7273;SDS011;3678;60.002;17.846;2022-12-18T01:58:32;12.60;;;7.03;;
7273;SDS011;3678;60.002;17.846;2022-12-18T02:01:02;17.70;;;9.43;;
7273;SDS011;3678;60.002;17.846;2022-12-18T02:03:29;17.27;;;8.90;;
7273;SDS011;3678;60.002;17.846;2022-12-18T02:05:57;14.17;;;7.23;;
7273;SDS011;3678;60.002;17.846;2022-12-18T02:08:26;13.77;;;7.57;;
7273;SDS011;3678;60.002;17.846;2022-12-18T02:10:59;12.67;;;7.10;;
7273;SDS011;3678;60.002;17.846;2022-12-18T02:13:28;13.00;;;6.77;;
7273;SDS011;3678;60.002;17.846;2022-12-18T02:15:58;18.47;;;8.13;;
7273;SDS011;3678;60.002;17.846;2022-12-18T02:18:27;12.57;;;6.50;;
7273;SDS011;3678;60.002;17.846;2022-12-18T02:20:57;14.73;;;7.63;;
7273;SDS011;3678;60.002;17.846;2022-12-18T02:23:33;15.90;;;7.73;;
7273;SDS011;3678;60.002;17.846;2022-12-18T02:26:04;15.00;;;7.23;;
7273;SDS011;3678;60.002;17.846;2022-12-18T02:28:34;15.67;;;7.67;;
7273;SDS011;3678;60.002;17.846;2022-12-18T02:31:03;17.35;;;8.63;;
7273;SDS011;3678;60.002;17.846;2022-12-18T02:33:31;14.83;;;7.93;;
7273;SDS011;3678;60.002;17.846;2022-12-18T02:36:00;14.30;;;6.90;;
7273;SDS011;3678;60.002;17.846;2022-12-18T02:38:28;14.67;;;7.90;;
7273;SDS011;3678;60.002;17.846;2022-12-18T02:40:56;14.60;;;7.03;;
7273;SDS011;3678;60.002;17.846;2022-12-18T02:43:25;17.77;;;8.70;;
7273;SDS011;3678;60.002;17.846;2022-12-18T02:45:53;14.47;;;8.40;;
7273;SDS011;3678;60.002;17.846;2022-12-18T02:48:22;15.33;;;7.73;;
7273;SDS011;3678;60.002;17.846;2022-12-18T02:50:51;16.30;;;7.53;;
7273;SDS011;3678;60.002;17.846;2022-12-18T02:53:22;14.63;;;9.03;;
7273;SDS011;3678;60.002;17.846;2022-12-18T02:55:53;10.30;;;6.20;;
7273;SDS011;3678;60.002;17.846;2022-12-18T02:58:26;14.07;;;7.53;;
7273;SDS011;3678;60.002;17.846;2022-12-18T03:00:58;14.50;;;7.30;;
7273;SDS011;3678;60.002;17.846;2022-12-18T03:03:27;15.63;;;7.57;;
7273;SDS011;3678;60.002;17.846;2022-12-18T03:05:56;14.23;;;7.77;;
7273;SDS011;3678;60.002;17.846;2022-12-18T03:08:26;16.10;;;7.57;;
7273;SDS011;3678;60.002;17.846;2022-12-18T03:10:55;13.47;;;7.60;;
7273;SDS011;3678;60.002;17.846;2022-12-18T03:13:27;14.73;;;8.07;;
7273;SDS011;3678;60.002;17.846;2022-12-18T03:15:55;11.33;;;6.37;;
7273;SDS011;3678;60.002;17.846;2022-12-18T03:18:24;12.50;;;6.60;;
7273;SDS011;3678;60.002;17.846;2022-12-18T03:20:52;15.13;;;7.40;;
7273;SDS011;3678;60.002;17.846;2022-12-18T03:23:21;13.40;;;6.50;;
7273;SDS011;3678;60.002;17.846;2022-12-18T03:25:50;11.93;;;7.03;;
7273;SDS011;3678;60.002;17.846;2022-12-18T03:28:19;13.93;;;7.20;;
7273;SDS011;3678;60.002;17.846;2022-12-18T03:30:49;13.55;;;7.40;;
7273;SDS011;3678;60.002;17.846;2022-12-18T03:33:18;17.40;;;7.80;;
7273;SDS011;3678;60.002;17.846;2022-12-18T03:35:46;15.13;;;7.50;;
7273;SDS011;3678;60.002;17.846;2022-12-18T03:38:13;12.20;;;7.07;;
7273;SDS011;3678;60.002;17.846;2022-12-18T03:40:43;13.10;;;7.33;;
7273;SDS011;3678;60.002;17.846;2022-12-18T03:43:15;14.90;;;6.77;;
7273;SDS011;3678;60.002;17.846;2022-12-18T03:45:46;11.13;;;6.23;;
7273;SDS011;3678;60.002;17.846;2022-12-18T03:48:17;10.70;;;5.53;;
7273;SDS011;3678;60.002;17.846;2022-12-18T03:50:46;13.80;;;8.43;;
7273;SDS011;3678;60.002;17.846;2022-12-18T03:53:22;13.67;;;7.30;;
7273;SDS011;3678;60.002;17.846;2022-12-18T03:55:52;18.17;;;8.73;;
7273;SDS011;3678;60.002;17.846;2022-12-18T03:58:20;15.03;;;8.37;;
7273;SDS011;3678;60.002;17.846;2022-12-18T04:00:50;18.08;;;9.18;;
7273;SDS011;3678;60.002;17.846;2022-12-18T04:03:19;17.80;;;9.13;;
7273;SDS011;3678;60.002;17.846;2022-12-18T04:05:47;17.10;;;7.67;;
7273;SDS011;3678;60.002;17.846;2022-12-18T04:08:15;15.90;;;8.03;;
7273;SDS011;3678;60.002;17.846;2022-12-18T04:10:42;15.63;;;7.83;;
7273;SDS011;3678;60.002;17.846;2022-12-18T04:13:09;14.30;;;7.00;;
7273;SDS011;3678;60.002;17.846;2022-12-18T04:15:37;15.73;;;7.83;;
7273;SDS011;3678;60.002;17.846;2022-12-18T04:18:04;13.80;;;7.97;;
7273;SDS011;3678;60.002;17.846;2022-12-18T04:20:33;16.37;;;7.77;;
7273;SDS011;3678;60.002;17.846;2022-12-18T04:23:00;14.40;;;7.87;;
7273;SDS011;3678;60.002;17.846;2022-12-18T04:25:27;16.33;;;8.63;;
7273;SDS011;3678;60.002;17.846;2022-12-18T04:27:54;13.30;;;7.60;;
7273;SDS011;3678;60.002;17.846;2022-12-18T04:30:21;18.27;;;8.65;;
7273;SDS011;3678;60.002;17.846;2022-12-18T04:32:48;17.03;;;8.10;;
7273;SDS011;3678;60.002;17.846;2022-12-18T04:35:16;15.53;;;7.40;;
7273;SDS011;3678;60.002;17.846;2022-12-18T04:37:44;16.33;;;8.13;;
7273;SDS011;3678;60.002;17.846;2022-12-18T04:40:13;21.90;;;8.57;;
7273;SDS011;3678;60.002;17.846;2022-12-18T04:42:40;14.97;;;7.93;;
7273;SDS011;3678;60.002;17.846;2022-12-18T04:45:07;14.70;;;8.70;;
7273;SDS011;3678;60.002;17.846;2022-12-18T04:47:34;17.43;;;10.03;;
7273;SDS011;3678;60.002;17.846;2022-12-18T04:50:02;15.53;;;7.83;;
7273;SDS011;3678;60.002;17.846;2022-12-18T04:52:30;16.80;;;9.13;;
7273;SDS011;3678;60.002;17.846;2022-12-18T04:54:59;13.60;;;7.97;;
7273;SDS011;3678;60.002;17.846;2022-12-18T04:57:26;16.00;;;8.50;;
7273;SDS011;3678;60.002;17.846;2022-12-18T04:59:53;18.67;;;9.13;;
7273;SDS011;3678;60.002;17.846;2022-12-18T05:02:20;16.53;;;8.90;;
7273;SDS011;3678;60.002;17.846;2022-12-18T05:04:47;18.57;;;8.40;;
7273;SDS011;3678;60.002;17.846;2022-12-18T05:07:14;14.97;;;8.23;;
7273;SDS011;3678;60.002;17.846;2022-12-18T05:09:42;15.13;;;8.20;;
7273;SDS011;3678;60.002;17.846;2022-12-18T05:12:10;15.13;;;8.87;;
7273;SDS011;3678;60.002;17.846;2022-12-18T05:14:37;16.92;;;8.60;;
7273;SDS011;3678;60.002;17.846;2022-12-18T05:17:05;12.57;;;8.17;;
7273;SDS011;3678;60.002;17.846;2022-12-18T05:19:32;16.50;;;7.70;;
7273;SDS011;3678;60.002;17.846;2022-12-18T05:21:59;12.77;;;7.30;;
7273;SDS011;3678;60.002;17.846;2022-12-18T05:24:26;11.70;;;6.40;;
7273;SDS011;3678;60.002;17.846;2022-12-18T05:26:54;15.10;;;8.23;;
7273;SDS011;3678;60.002;17.846;2022-12-18T05:29:22;14.50;;;7.77;;
7273;SDS011;3678;60.002;17.846;2022-12-18T05:31:49;18.15;;;9.95;;
7273;SDS011;3678;60.002;17.846;2022-12-18T05:34:16;13.80;;;8.37;;
7273;SDS011;3678;60.002;17.846;2022-12-18T05:36:43;12.27;;;7.07;;
7273;SDS011;3678;60.002;17.846;2022-12-18T05:39:11;12.67;;;6.50;;
7273;SDS011;3678;60.002;17.846;2022-12-18T05:41:38;14.03;;;6.83;;
7273;SDS011;3678;60.002;17.846;2022-12-18T05:44:05;14.37;;;7.50;;
7273;SDS011;3678;60.002;17.846;2022-12-18T05:46:33;13.70;;;7.10;;
7273;SDS011;3678;60.002;17.846;2022-12-18T05:49:01;13.20;;;6.47;;
7273;SDS011;3678;60.002;17.846;2022-12-18T05:51:28;14.07;;;7.13;;
7273;SDS011;3678;60.002;17.846;2022-12-18T05:53:56;13.57;;;6.60;;
7273;SDS011;3678;60.002;17.846;2022-12-18T05:56:23;11.07;;;6.57;;
7273;SDS011;3678;60.002;17.846;2022-12-18T05:58:51;13.60;;;6.93;;
7273;SDS011;3678;60.002;17.846;2022-12-18T06:01:19;15.90;;;7.95;;
7273;SDS011;3678;60.002;17.846;2022-12-18T06:03:48;13.97;;;7.37;;
7273;SDS011;3678;60.002;17.846;2022-12-18T06:06:16;17.63;;;7.87;;
7273;SDS011;3678;60.002;17.846;2022-12-18T06:08:44;13.23;;;6.90;;
7273;SDS011;3678;60.002;17.846;2022-12-18T06:11:11;17.60;;;7.13;;
7273;SDS011;3678;60.002;17.846;2022-12-18T06:13:38;13.63;;;5.40;;
7273;SDS011;3678;60.002;17.846;2022-12-18T06:16:05;15.73;;;8.83;;
7273;SDS011;3678;60.002;17.846;2022-12-18T06:18:32;14.97;;;7.43;;
7273;SDS011;3678;60.002;17.846;2022-12-18T06:21:05;12.87;;;7.20;;
7273;SDS011;3678;60.002;17.846;2022-12-18T06:23:32;12.97;;;7.20;;
7273;SDS011;3678;60.002;17.846;2022-12-18T06:26:02;14.47;;;6.80;;
7273;SDS011;3678;60.002;17.846;2022-12-18T06:28:30;11.37;;;6.40;;
7273;SDS011;3678;60.002;17.846;2022-12-18T06:30:57;16.53;;;8.83;;
7273;SDS011;3678;60.002;17.846;2022-12-18T06:33:25;14.77;;;7.77;;
7273;SDS011;3678;60.002;17.846;2022-12-18T06:35:53;15.60;;;7.87;;
7273;SDS011;3678;60.002;17.846;2022-12-18T06:38:21;14.80;;;8.30;;
7273;SDS011;3678;60.002;17.846;2022-12-18T06:40:48;16.67;;;7.47;;
7273;SDS011;3678;60.002;17.846;2022-12-18T06:43:15;13.63;;;6.83;;
7273;SDS011;3678;60.002;17.846;2022-12-18T06:45:42;18.08;;;9.38;;
7273;SDS011;3678;60.002;17.846;2022-12-18T06:48:11;13.43;;;7.27;;
7273;SDS011;3678;60.002;17.846;2022-12-18T06:50:41;13.77;;;6.40;;
7273;SDS011;3678;60.002;17.846;2022-12-18T06:53:08;10.23;;;6.37;;
7273;SDS011;3678;60.002;17.846;2022-12-18T06:55:37;13.47;;;6.47;;
7273;SDS011;3678;60.002;17.846;2022-12-18T06:58:04;16.10;;;7.10;;
7273;SDS011;3678;60.002;17.846;2022-12-18T07:00:31;14.63;;;7.40;;
7273;SDS011;3678;60.002;17.846;2022-12-18T07:02:59;13.98;;;8.00;;
7273;SDS011;3678;60.002;17.846;2022-12-18T07:05:26;15.90;;;7.67;;
7273;SDS011;3678;60.002;17.846;2022-12-18T07:07:53;15.53;;;8.10;;
7273;SDS011;3678;60.002;17.846;2022-12-18T07:10:20;12.73;;;7.27;;
7273;SDS011;3678;60.002;17.846;2022-12-18T07:12:48;14.73;;;7.77;;
7273;SDS011;3678;60.002;17.846;2022-12-18T07:15:16;17.13;;;8.20;;
7273;SDS011;3678;60.002;17.846;2022-12-18T07:17:43;11.50;;;7.00;;
7273;SDS011;3678;60.002;17.846;2022-12-18T07:20:10;14.90;;;6.93;;
7273;SDS011;3678;60.002;17.846;2022-12-18T07:22:37;14.37;;;6.87;;
7273;SDS011;3678;60.002;17.846;2022-12-18T07:25:05;15.00;;;7.40;;
7273;SDS011;3678;60.002;17.846;2022-12-18T07:27:33;12.83;;;6.80;;
7273;SDS011;3678;60.002;17.846;2022-12-18T07:30:02;17.08;;;6.65;;
7273;SDS011;3678;60.002;17.846;2022-12-18T07:32:30;12.75;;;7.07;;
7273;SDS011;3678;60.002;17.846;2022-12-18T07:34:57;12.80;;;6.90;;
7273;SDS011;3678;60.002;17.846;2022-12-18T07:37:24;13.97;;;8.50;;
7273;SDS011;3678;60.002;17.846;2022-12-18T07:39:51;18.40;;;7.87;;
7273;SDS011;3678;60.002;17.846;2022-12-18T07:42:18;10.43;;;6.33;;
7273;SDS011;3678;60.002;17.846;2022-12-18T07:44:58;15.17;;;7.77;;
7273;SDS011;3678;60.002;17.846;2022-12-18T07:47:26;15.90;;;7.37;;
7273;SDS011;3678;60.002;17.846;2022-12-18T07:49:57;16.77;;;8.17;;
7273;SDS011;3678;60.002;17.846;2022-12-18T07:52:24;14.83;;;7.67;;
7273;SDS011;3678;60.002;17.846;2022-12-18T07:54:51;16.97;;;8.00;;
7273;SDS011;3678;60.002;17.846;2022-12-18T07:57:18;14.67;;;6.83;;
7273;SDS011;3678;60.002;17.846;2022-12-18T07:59:46;12.60;;;6.63;;
7273;SDS011;3678;60.002;17.846;2022-12-18T08:02:13;14.97;;;6.23;;
7273;SDS011;3678;60.002;17.846;2022-12-18T08:04:41;16.70;;;8.68;;
7273;SDS011;3678;60.002;17.846;2022-12-18T08:07:08;12.83;;;6.93;;
7273;SDS011;3678;60.002;17.846;2022-12-18T08:09:35;14.17;;;7.37;;
7273;SDS011;3678;60.002;17.846;2022-12-18T08:12:03;10.00;;;6.93;;
7273;SDS011;3678;60.002;17.846;2022-12-18T08:14:30;13.30;;;6.67;;
7273;SDS011;3678;60.002;17.846;2022-12-18T08:16:57;12.27;;;6.73;;
7273;SDS011;3678;60.002;17.846;2022-12-18T08:19:24;13.43;;;6.93;;
7273;SDS011;3678;60.002;17.846;2022-12-18T08:21:53;15.20;;;6.80;;
7273;SDS011;3678;60.002;17.846;2022-12-18T08:24:21;10.80;;;6.17;;
7273;SDS011;3678;60.002;17.846;2022-12-18T08:26:48;10.60;;;6.27;;
7273;SDS011;3678;60.002;17.846;2022-12-18T08:29:15;11.03;;;5.23;;
7273;SDS011;3678;60.002;17.846;2022-12-18T08:31:42;14.43;;;6.83;;
7273;SDS011;3678;60.002;17.846;2022-12-18T08:34:10;13.52;;;8.15;;
7273;SDS011;3678;60.002;17.846;2022-12-18T08:36:37;12.60;;;6.67;;
7273;SDS011;3678;60.002;17.846;2022-12-18T08:39:05;12.43;;;6.50;;
7273;SDS011;3678;60.002;17.846;2022-12-18T08:41:32;10.03;;;5.47;;
7273;SDS011;3678;60.002;17.846;2022-12-18T08:43:59;13.37;;;6.47;;
7273;SDS011;3678;60.002;17.846;2022-12-18T08:46:44;10.27;;;5.73;;
7273;SDS011;3678;60.002;17.846;2022-12-18T08:49:12;10.43;;;5.97;;
7273;SDS011;3678;60.002;17.846;2022-12-18T08:51:39;12.57;;;6.90;;
7273;SDS011;3678;60.002;17.846;2022-12-18T08:54:08;10.37;;;5.70;;
7273;SDS011;3678;60.002;17.846;2022-12-18T08:56:37;9.47;;;6.23;;
7273;SDS011;3678;60.002;17.846;2022-12-18T08:59:04;13.93;;;7.30;;
7273;SDS011;3678;60.002;17.846;2022-12-18T09:01:32;15.60;;;8.63;;
7273;SDS011;3678;60.002;17.846;2022-12-18T09:03:59;13.50;;;7.10;;
7273;SDS011;3678;60.002;17.846;2022-12-18T09:06:26;11.00;;;6.30;;
7273;SDS011;3678;60.002;17.846;2022-12-18T09:08:53;9.90;;;5.93;;
7273;SDS011;3678;60.002;17.846;2022-12-18T09:11:22;9.80;;;5.83;;
7273;SDS011;3678;60.002;17.846;2022-12-18T09:13:49;10.30;;;5.57;;
7273;SDS011;3678;60.002;17.846;2022-12-18T09:16:16;12.77;;;7.10;;
7273;SDS011;3678;60.002;17.846;2022-12-18T09:18:44;12.93;;;6.60;;
7273;SDS011;3678;60.002;17.846;2022-12-18T09:21:12;11.07;;;6.33;;
7273;SDS011;3678;60.002;17.846;2022-12-18T09:23:39;11.53;;;6.27;;
7273;SDS011;3678;60.002;17.846;2022-12-18T09:26:06;13.67;;;7.43;;
7273;SDS011;3678;60.002;17.846;2022-12-18T09:28:35;12.97;;;7.03;;
7273;SDS011;3678;60.002;17.846;2022-12-18T09:31:06;13.37;;;7.23;;
7273;SDS011;3678;60.002;17.846;2022-12-18T09:33:33;16.67;;;6.97;;
7273;SDS011;3678;60.002;17.846;2022-12-18T09:36:01;14.65;;;8.57;;
7273;SDS011;3678;60.002;17.846;2022-12-18T09:38:29;13.17;;;6.97;;
7273;SDS011;3678;60.002;17.846;2022-12-18T09:40:57;14.63;;;7.63;;
7273;SDS011;3678;60.002;17.846;2022-12-18T09:43:26;14.10;;;7.60;;
7273;SDS011;3678;60.002;17.846;2022-12-18T09:45:57;16.10;;;8.02;;
7273;SDS011;3678;60.002;17.846;2022-12-18T09:48:27;12.77;;;7.57;;
7273;SDS011;3678;60.002;17.846;2022-12-18T09:50:55;14.70;;;7.70;;
7273;SDS011;3678;60.002;17.846;2022-12-18T09:53:26;15.50;;;6.97;;
7273;SDS011;3678;60.002;17.846;2022-12-18T09:55:54;10.57;;;5.97;;
7273;SDS011;3678;60.002;17.846;2022-12-18T09:58:24;12.83;;;6.70;;
7273;SDS011;3678;60.002;17.846;2022-12-18T10:00:53;12.85;;;8.13;;
7273;SDS011;3678;60.002;17.846;2022-12-18T10:03:22;14.73;;;7.40;;
7273;SDS011;3678;60.002;17.846;2022-12-18T10:05:53;15.70;;;7.80;;
7273;SDS011;3678;60.002;17.846;2022-12-18T10:08:22;12.53;;;6.40;;
7273;SDS011;3678;60.002;17.846;2022-12-18T10:10:52;14.63;;;6.97;;
7273;SDS011;3678;60.002;17.846;2022-12-18T10:13:22;13.73;;;7.57;;
7273;SDS011;3678;60.002;17.846;2022-12-18T10:18:38;15.67;;;7.90;;
7273;SDS011;3678;60.002;17.846;2022-12-18T10:21:09;9.60;;;6.17;;
7273;SDS011;3678;60.002;17.846;2022-12-18T10:23:39;10.93;;;7.17;;
7273;SDS011;3678;60.002;17.846;2022-12-18T10:26:09;9.70;;;6.33;;
7273;SDS011;3678;60.002;17.846;2022-12-18T10:28:37;16.87;;;8.23;;
7273;SDS011;3678;60.002;17.846;2022-12-18T10:31:05;14.63;;;7.67;;
7273;SDS011;3678;60.002;17.846;2022-12-18T10:33:33;10.43;;;7.33;;
7273;SDS011;3678;60.002;17.846;2022-12-18T10:36:01;13.77;;;7.63;;
7273;SDS011;3678;60.002;17.846;2022-12-18T10:38:29;15.03;;;7.70;;
7273;SDS011;3678;60.002;17.846;2022-12-18T10:40:57;12.43;;;7.17;;
7273;SDS011;3678;60.002;17.846;2022-12-18T10:43:25;14.37;;;8.80;;
7273;SDS011;3678;60.002;17.846;2022-12-18T10:46:00;14.87;;;7.50;;
7273;SDS011;3678;60.002;17.846;2022-12-18T10:48:27;18.00;;;8.13;;
7273;SDS011;3678;60.002;17.846;2022-12-18T10:50:55;15.23;;;7.20;;
7273;SDS011;3678;60.002;17.846;2022-12-18T10:53:25;15.37;;;7.80;;
7273;SDS011;3678;60.002;17.846;2022-12-18T10:55:53;11.90;;;7.37;;
7273;SDS011;3678;60.002;17.846;2022-12-18T10:58:23;12.13;;;7.67;;
7273;SDS011;3678;60.002;17.846;2022-12-18T11:01:04;14.17;;;7.47;;
7273;SDS011;3678;60.002;17.846;2022-12-18T11:03:32;8.57;;;5.97;;
7273;SDS011;3678;60.002;17.846;2022-12-18T11:06:02;11.90;;;6.90;;
7273;SDS011;3678;60.002;17.846;2022-12-18T11:08:31;11.10;;;6.13;;
7273;SDS011;3678;60.002;17.846;2022-12-18T11:10:58;13.80;;;7.20;;
7273;SDS011;3678;60.002;17.846;2022-12-18T11:13:26;11.17;;;6.63;;
7273;SDS011;3678;60.002;17.846;2022-12-18T11:15:53;10.73;;;7.17;;
7273;SDS011;3678;60.002;17.846;2022-12-18T11:18:22;11.73;;;6.77;;
7273;SDS011;3678;60.002;17.846;2022-12-18T11:20:51;12.97;;;7.83;;
7273;SDS011;3678;60.002;17.846;2022-12-18T11:23:19;12.30;;;5.27;;
7273;SDS011;3678;60.002;17.846;2022-12-18T11:25:54;13.23;;;6.33;;
7273;SDS011;3678;60.002;17.846;2022-12-18T11:28:25;11.57;;;6.10;;
7273;SDS011;3678;60.002;17.846;2022-12-18T11:31:08;13.30;;;8.40;;
7273;SDS011;3678;60.002;17.846;2022-12-18T11:33:37;17.43;;;7.20;;
7273;SDS011;3678;60.002;17.846;2022-12-18T11:36:05;11.33;;;7.23;;
7273;SDS011;3678;60.002;17.846;2022-12-18T11:38:35;13.50;;;7.90;;
7273;SDS011;3678;60.002;17.846;2022-12-18T11:41:05;11.50;;;7.07;;
7273;SDS011;3678;60.002;17.846;2022-12-18T11:43:35;7.37;;;5.63;;
7273;SDS011;3678;60.002;17.846;2022-12-18T11:46:06;10.03;;;5.90;;
7273;SDS011;3678;60.002;17.846;2022-12-18T11:48:36;10.10;;;5.00;;
7273;SDS011;3678;60.002;17.846;2022-12-18T11:51:05;10.93;;;5.80;;
7273;SDS011;3678;60.002;17.846;2022-12-18T11:53:35;10.60;;;5.87;;
7273;SDS011;3678;60.002;17.846;2022-12-18T11:56:11;9.37;;;5.90;;
7273;SDS011;3678;60.002;17.846;2022-12-18T11:58:45;7.47;;;5.27;;
7273;SDS011;3678;60.002;17.846;2022-12-18T12:01:15;13.68;;;6.40;;
7273;SDS011;3678;60.002;17.846;2022-12-18T12:03:50;16.00;;;5.97;;
7273;SDS011;3678;60.002;17.846;2022-12-18T12:06:21;11.73;;;5.37;;
7273;SDS011;3678;60.002;17.846;2022-12-18T12:08:59;10.47;;;5.30;;
7273;SDS011;3678;60.002;17.846;2022-12-18T12:11:31;7.90;;;4.40;;
7273;SDS011;3678;60.002;17.846;2022-12-18T12:14:08;9.33;;;5.03;;
7273;SDS011;3678;60.002;17.846;2022-12-18T12:16:41;9.87;;;4.93;;
7273;SDS011;3678;60.002;17.846;2022-12-18T12:19:17;7.20;;;4.60;;
7273;SDS011;3678;60.002;17.846;2022-12-18T12:21:46;10.70;;;4.47;;
7273;SDS011;3678;60.002;17.846;2022-12-18T12:24:19;9.83;;;4.07;;
7273;SDS011;3678;60.002;17.846;2022-12-18T12:26:55;10.80;;;4.90;;
7273;SDS011;3678;60.002;17.846;2022-12-18T12:29:28;9.60;;;4.00;;
7273;SDS011;3678;60.002;17.846;2022-12-18T12:32:03;7.40;;;4.03;;
7273;SDS011;3678;60.002;17.846;2022-12-18T12:34:33;10.38;;;3.95;;
7273;SDS011;3678;60.002;17.846;2022-12-18T12:37:05;12.43;;;4.17;;
7273;SDS011;3678;60.002;17.846;2022-12-18T12:39:38;10.55;;;5.07;;
7273;SDS011;3678;60.002;17.846;2022-12-18T12:42:11;10.87;;;4.27;;
7273;SDS011;3678;60.002;17.846;2022-12-18T12:44:58;9.35;;;4.50;;
7273;SDS011;3678;60.002;17.846;2022-12-18T12:47:27;7.40;;;4.03;;
7273;SDS011;3678;60.002;17.846;2022-12-18T12:49:55;6.83;;;3.50;;
7273;SDS011;3678;60.002;17.846;2022-12-18T12:52:26;7.20;;;3.57;;
7273;SDS011;3678;60.002;17.846;2022-12-18T12:54:54;6.83;;;3.57;;
7273;SDS011;3678;60.002;17.846;2022-12-18T12:57:24;5.80;;;3.17;;
7273;SDS011;3678;60.002;17.846;2022-12-18T12:59:57;6.87;;;4.67;;
7273;SDS011;3678;60.002;17.846;2022-12-18T13:02:28;8.17;;;3.50;;
7273;SDS011;3678;60.002;17.846;2022-12-18T13:04:58;9.13;;;3.73;;
7273;SDS011;3678;60.002;17.846;2022-12-18T13:07:26;8.93;;;3.77;;
7273;SDS011;3678;60.002;17.846;2022-12-18T13:12:52;9.17;;;3.50;;
7273;SDS011;3678;60.002;17.846;2022-12-18T13:15:22;9.77;;;3.10;;
7273;SDS011;3678;60.002;17.846;2022-12-18T13:18:02;5.00;;;2.80;;
7273;SDS011;3678;60.002;17.846;2022-12-18T13:20:32;8.93;;;3.27;;
7273;SDS011;3678;60.002;17.846;2022-12-18T13:23:00;7.00;;;3.17;;
7273;SDS011;3678;60.002;17.846;2022-12-18T13:25:32;9.43;;;3.40;;
7273;SDS011;3678;60.002;17.846;2022-12-18T13:28:02;7.10;;;2.83;;
7273;SDS011;3678;60.002;17.846;2022-12-18T13:30:49;5.97;;;2.80;;
7273;SDS011;3678;60.002;17.846;2022-12-18T13:36:02;6.60;;;2.40;;
7273;SDS011;3678;60.002;17.846;2022-12-18T13:38:36;6.80;;;2.50;;
7273;SDS011;3678;60.002;17.846;2022-12-18T13:41:04;4.93;;;2.23;;
7273;SDS011;3678;60.002;17.846;2022-12-18T13:43:41;2.90;;;2.13;;
7273;SDS011;3678;60.002;17.846;2022-12-18T13:46:23;4.33;;;1.90;;
7273;SDS011;3678;60.002;17.846;2022-12-18T13:48:52;4.47;;;2.03;;
7273;SDS011;3678;60.002;17.846;2022-12-18T13:51:20;7.10;;;2.47;;
7273;SDS011;3678;60.002;17.846;2022-12-18T13:53:48;7.10;;;2.33;;
7273;SDS011;3678;60.002;17.846;2022-12-18T13:56:16;10.43;;;2.60;;
7273;SDS011;3678;60.002;17.846;2022-12-18T13:58:45;2.83;;;1.83;;
7273;SDS011;3678;60.002;17.846;2022-12-18T14:01:21;4.47;;;2.20;;
7273;SDS011;3678;60.002;17.846;2022-12-18T14:03:48;5.27;;;2.20;;
7273;SDS011;3678;60.002;17.846;2022-12-18T14:06:15;3.60;;;1.70;;
7273;SDS011;3678;60.002;17.846;2022-12-18T14:08:43;4.77;;;2.10;;
7273;SDS011;3678;60.002;17.846;2022-12-18T14:13:43;6.67;;;1.90;;
7273;SDS011;3678;60.002;17.846;2022-12-18T14:16:14;6.95;;;2.33;;
7273;SDS011;3678;60.002;17.846;2022-12-18T14:18:43;4.90;;;1.73;;
7273;SDS011;3678;60.002;17.846;2022-12-18T14:21:18;4.97;;;1.67;;
7273;SDS011;3678;60.002;17.846;2022-12-18T14:23:46;5.23;;;1.93;;
7273;SDS011;3678;60.002;17.846;2022-12-18T14:26:21;3.20;;;1.80;;
7273;SDS011;3678;60.002;17.846;2022-12-18T14:28:49;3.67;;;1.47;;
7273;SDS011;3678;60.002;17.846;2022-12-18T14:31:18;6.70;;;1.80;;
7273;SDS011;3678;60.002;17.846;2022-12-18T14:33:45;5.07;;;1.80;;
7273;SDS011;3678;60.002;17.846;2022-12-18T14:36:14;5.57;;;2.13;;
7273;SDS011;3678;60.002;17.846;2022-12-18T14:38:42;4.37;;;1.87;;
7273;SDS011;3678;60.002;17.846;2022-12-18T14:41:10;4.13;;;1.90;;
7273;SDS011;3678;60.002;17.846;2022-12-18T14:43:39;3.77;;;1.67;;
7273;SDS011;3678;60.002;17.846;2022-12-18T14:46:24;5.47;;;2.05;;
7273;SDS011;3678;60.002;17.846;2022-12-18T14:48:53;4.63;;;1.60;;
7273;SDS011;3678;60.002;17.846;2022-12-18T14:51:22;5.30;;;1.70;;
7273;SDS011;3678;60.002;17.846;2022-12-18T14:53:53;3.80;;;1.90;;
7273;SDS011;3678;60.002;17.846;2022-12-18T14:56:21;4.10;;;1.60;;
7273;SDS011;3678;60.002;17.846;2022-12-18T14:58:50;3.93;;;1.60;;
7273;SDS011;3678;60.002;17.846;2022-12-18T15:01:19;7.32;;;2.80;;
7273;SDS011;3678;60.002;17.846;2022-12-18T15:03:47;8.27;;;1.77;;
7273;SDS011;3678;60.002;17.846;2022-12-18T15:06:16;4.37;;;1.40;;
7273;SDS011;3678;60.002;17.846;2022-12-18T15:08:44;7.00;;;1.67;;
7273;SDS011;3678;60.002;17.846;2022-12-18T15:13:57;6.37;;;1.97;;
7273;SDS011;3678;60.002;17.846;2022-12-18T15:16:25;3.47;;;1.70;;